sensor_id;sensor_type;location;lat;lon;timestamp;P1;durP1;ratioP1;P2;durP2;ratioP2
29362;SDS011;16349;53.672;10.014;2023-08-24T00:00:37;3.20;;;2.40;;
29362;SDS011;16349;53.672;10.014;2023-08-24T00:03:03;3.77;;;2.30;;
29362;SDS011;16349;53.672;10.014;2023-08-24T00:05:32;4.03;;;2.90;;
29362;SDS011;16349;53.672;10.014;2023-08-24T00:08:02;2.77;;;2.37;;
29362;SDS011;16349;53.672;10.014;2023-08-24T00:10:29;4.73;;;2.33;;
29362;SDS011;16349;53.672;10.014;2023-08-24T00:12:57;5.33;;;2.60;;
29362;SDS011;16349;53.672;10.014;2023-08-24T00:15:24;3.00;;;2.60;;
29362;SDS011;16349;53.672;10.014;2023-08-24T00:17:51;4.83;;;2.37;;
29362;SDS011;16349;53.672;10.014;2023-08-24T00:20:18;1.80;;;1.57;;
29362;SDS011;16349;53.672;10.014;2023-08-24T00:22:45;3.00;;;1.83;;
29362;SDS011;16349;53.672;10.014;2023-08-24T00:25:12;3.03;;;2.23;;
29362;SDS011;16349;53.672;10.014;2023-08-24T00:27:40;2.73;;;1.77;;
29362;SDS011;16349;53.672;10.014;2023-08-24T00:30:08;1.80;;;1.70;;
29362;SDS011;16349;53.672;10.014;2023-08-24T00:32:36;3.23;;;2.20;;
29362;SDS011;16349;53.672;10.014;2023-08-24T00:35:03;2.13;;;1.70;;
29362;SDS011;16349;53.672;10.014;2023-08-24T00:37:32;3.10;;;1.90;;
29362;SDS011;16349;53.672;10.014;2023-08-24T00:39:59;5.63;;;2.20;;
29362;SDS011;16349;53.672;10.014;2023-08-24T00:42:28;6.47;;;3.20;;
29362;SDS011;16349;53.672;10.014;2023-08-24T00:44:55;5.33;;;3.50;;
29362;SDS011;16349;53.672;10.014;2023-08-24T00:47:23;6.63;;;2.77;;
29362;SDS011;16349;53.672;10.014;2023-08-24T00:49:51;3.23;;;2.30;;
29362;SDS011;16349;53.672;10.014;2023-08-24T00:52:17;2.43;;;1.97;;
29362;SDS011;16349;53.672;10.014;2023-08-24T00:54:45;6.37;;;2.10;;
29362;SDS011;16349;53.672;10.014;2023-08-24T00:57:12;2.83;;;2.13;;
29362;SDS011;16349;53.672;10.014;2023-08-24T00:59:39;5.23;;;2.70;;
29362;SDS011;16349;53.672;10.014;2023-08-24T01:02:06;4.00;;;1.97;;
29362;SDS011;16349;53.672;10.014;2023-08-24T01:04:35;4.47;;;2.47;;
29362;SDS011;16349;53.672;10.014;2023-08-24T01:07:02;5.57;;;1.90;;
29362;SDS011;16349;53.672;10.014;2023-08-24T01:09:30;2.50;;;2.23;;
29362;SDS011;16349;53.672;10.014;2023-08-24T01:11:58;2.43;;;2.20;;
29362;SDS011;16349;53.672;10.014;2023-08-24T01:14:30;5.63;;;2.70;;
29362;SDS011;16349;53.672;10.014;2023-08-24T01:17:14;3.03;;;2.20;;
29362;SDS011;16349;53.672;10.014;2023-08-24T01:19:46;4.30;;;2.63;;
29362;SDS011;16349;53.672;10.014;2023-08-24T01:22:18;5.00;;;3.03;;
29362;SDS011;16349;53.672;10.014;2023-08-24T01:24:59;4.30;;;2.30;;
29362;SDS011;16349;53.672;10.014;2023-08-24T01:27:34;4.23;;;2.90;;
29362;SDS011;16349;53.672;10.014;2023-08-24T01:30:02;4.67;;;3.10;;
29362;SDS011;16349;53.672;10.014;2023-08-24T01:32:30;5.90;;;3.37;;
29362;SDS011;16349;53.672;10.014;2023-08-24T01:34:58;3.93;;;3.10;;
29362;SDS011;16349;53.672;10.014;2023-08-24T01:37:25;4.33;;;2.60;;
29362;SDS011;16349;53.672;10.014;2023-08-24T01:39:54;3.77;;;2.27;;
29362;SDS011;16349;53.672;10.014;2023-08-24T01:42:31;3.73;;;2.90;;
29362;SDS011;16349;53.672;10.014;2023-08-24T01:45:03;6.27;;;2.67;;
29362;SDS011;16349;53.672;10.014;2023-08-24T01:47:33;4.83;;;3.20;;
29362;SDS011;16349;53.672;10.014;2023-08-24T01:50:02;5.20;;;2.87;;
29362;SDS011;16349;53.672;10.014;2023-08-24T01:52:30;7.33;;;3.60;;
29362;SDS011;16349;53.672;10.014;2023-08-24T01:54:58;4.73;;;3.03;;
29362;SDS011;16349;53.672;10.014;2023-08-24T01:57:25;4.00;;;3.00;;
29362;SDS011;16349;53.672;10.014;2023-08-24T01:59:54;5.10;;;2.93;;
29362;SDS011;16349;53.672;10.014;2023-08-24T02:02:21;3.80;;;3.30;;
29362;SDS011;16349;53.672;10.014;2023-08-24T02:04:48;5.40;;;3.40;;
29362;SDS011;16349;53.672;10.014;2023-08-24T02:07:14;2.90;;;2.57;;
29362;SDS011;16349;53.672;10.014;2023-08-24T02:09:42;4.43;;;2.67;;
29362;SDS011;16349;53.672;10.014;2023-08-24T02:12:08;4.30;;;3.27;;
29362;SDS011;16349;53.672;10.014;2023-08-24T02:14:35;3.43;;;2.67;;
29362;SDS011;16349;53.672;10.014;2023-08-24T02:17:03;4.47;;;3.00;;
29362;SDS011;16349;53.672;10.014;2023-08-24T02:19:30;2.97;;;2.67;;
29362;SDS011;16349;53.672;10.014;2023-08-24T02:21:58;5.70;;;3.10;;
29362;SDS011;16349;53.672;10.014;2023-08-24T02:24:25;4.37;;;3.10;;
29362;SDS011;16349;53.672;10.014;2023-08-24T02:26:52;6.13;;;3.60;;
29362;SDS011;16349;53.672;10.014;2023-08-24T02:29:18;3.73;;;3.13;;
29362;SDS011;16349;53.672;10.014;2023-08-24T02:31:48;4.00;;;3.10;;
29362;SDS011;16349;53.672;10.014;2023-08-24T02:34:17;4.40;;;3.30;;
29362;SDS011;16349;53.672;10.014;2023-08-24T02:36:44;4.77;;;3.23;;
29362;SDS011;16349;53.672;10.014;2023-08-24T02:39:11;4.47;;;3.00;;
29362;SDS011;16349;53.672;10.014;2023-08-24T02:41:38;5.50;;;3.13;;
29362;SDS011;16349;53.672;10.014;2023-08-24T02:44:05;4.47;;;3.00;;
29362;SDS011;16349;53.672;10.014;2023-08-24T02:46:32;5.10;;;3.30;;
29362;SDS011;16349;53.672;10.014;2023-08-24T02:49:00;5.77;;;4.60;;
29362;SDS011;16349;53.672;10.014;2023-08-24T02:51:29;9.20;;;4.27;;
29362;SDS011;16349;53.672;10.014;2023-08-24T02:53:56;5.10;;;4.60;;
29362;SDS011;16349;53.672;10.014;2023-08-24T02:56:23;5.93;;;4.17;;
29362;SDS011;16349;53.672;10.014;2023-08-24T02:58:50;4.63;;;4.23;;
29362;SDS011;16349;53.672;10.014;2023-08-24T03:01:17;3.60;;;3.30;;
29362;SDS011;16349;53.672;10.014;2023-08-24T03:03:44;3.40;;;3.00;;
29362;SDS011;16349;53.672;10.014;2023-08-24T03:06:11;4.50;;;3.50;;
29362;SDS011;16349;53.672;10.014;2023-08-24T03:08:40;7.30;;;3.63;;
29362;SDS011;16349;53.672;10.014;2023-08-24T03:11:07;3.87;;;3.57;;
29362;SDS011;16349;53.672;10.014;2023-08-24T03:13:35;7.37;;;4.03;;
29362;SDS011;16349;53.672;10.014;2023-08-24T03:16:03;5.23;;;4.33;;
29362;SDS011;16349;53.672;10.014;2023-08-24T03:18:31;4.77;;;4.20;;
29362;SDS011;16349;53.672;10.014;2023-08-24T03:20:58;5.93;;;4.70;;
29362;SDS011;16349;53.672;10.014;2023-08-24T03:23:25;8.63;;;4.87;;
29362;SDS011;16349;53.672;10.014;2023-08-24T03:25:53;7.43;;;4.50;;
29362;SDS011;16349;53.672;10.014;2023-08-24T03:28:21;5.67;;;4.23;;
29362;SDS011;16349;53.672;10.014;2023-08-24T03:30:48;5.50;;;4.23;;
29362;SDS011;16349;53.672;10.014;2023-08-24T03:33:16;6.43;;;4.90;;
29362;SDS011;16349;53.672;10.014;2023-08-24T03:35:44;6.97;;;5.13;;
29362;SDS011;16349;53.672;10.014;2023-08-24T03:38:11;4.80;;;4.40;;
29362;SDS011;16349;53.672;10.014;2023-08-24T03:40:38;8.67;;;4.70;;
29362;SDS011;16349;53.672;10.014;2023-08-24T03:43:06;5.10;;;4.60;;
29362;SDS011;16349;53.672;10.014;2023-08-24T03:45:33;4.80;;;4.33;;
29362;SDS011;16349;53.672;10.014;2023-08-24T03:48:00;6.13;;;4.27;;
29362;SDS011;16349;53.672;10.014;2023-08-24T03:50:27;6.03;;;5.10;;
29362;SDS011;16349;53.672;10.014;2023-08-24T03:52:54;7.10;;;4.70;;
29362;SDS011;16349;53.672;10.014;2023-08-24T03:55:21;8.00;;;4.10;;
29362;SDS011;16349;53.672;10.014;2023-08-24T03:57:48;3.80;;;3.50;;
29362;SDS011;16349;53.672;10.014;2023-08-24T04:00:17;4.67;;;3.67;;
29362;SDS011;16349;53.672;10.014;2023-08-24T04:02:44;4.47;;;3.30;;
29362;SDS011;16349;53.672;10.014;2023-08-24T04:05:19;4.43;;;3.20;;
29362;SDS011;16349;53.672;10.014;2023-08-24T04:07:47;3.73;;;3.33;;
29362;SDS011;16349;53.672;10.014;2023-08-24T04:10:14;3.33;;;3.00;;
29362;SDS011;16349;53.672;10.014;2023-08-24T04:12:41;10.00;;;2.90;;
29362;SDS011;16349;53.672;10.014;2023-08-24T04:15:09;3.73;;;3.33;;
29362;SDS011;16349;53.672;10.014;2023-08-24T04:17:37;3.80;;;2.83;;
29362;SDS011;16349;53.672;10.014;2023-08-24T04:20:04;3.67;;;2.53;;
29362;SDS011;16349;53.672;10.014;2023-08-24T04:22:33;3.30;;;2.80;;
29362;SDS011;16349;53.672;10.014;2023-08-24T04:24:59;5.03;;;3.03;;
29362;SDS011;16349;53.672;10.014;2023-08-24T04:27:26;3.57;;;3.33;;
29362;SDS011;16349;53.672;10.014;2023-08-24T04:29:54;4.97;;;3.10;;
29362;SDS011;16349;53.672;10.014;2023-08-24T04:32:21;4.43;;;3.20;;
29362;SDS011;16349;53.672;10.014;2023-08-24T04:34:49;4.10;;;3.70;;
29362;SDS011;16349;53.672;10.014;2023-08-24T04:37:16;3.30;;;3.00;;
29362;SDS011;16349;53.672;10.014;2023-08-24T04:39:43;5.50;;;3.00;;
29362;SDS011;16349;53.672;10.014;2023-08-24T04:42:10;2.77;;;2.53;;
29362;SDS011;16349;53.672;10.014;2023-08-24T04:44:37;5.07;;;3.10;;
29362;SDS011;16349;53.672;10.014;2023-08-24T04:47:04;4.73;;;3.33;;
29362;SDS011;16349;53.672;10.014;2023-08-24T04:49:32;6.53;;;3.60;;
29362;SDS011;16349;53.672;10.014;2023-08-24T04:52:00;3.53;;;3.23;;
29362;SDS011;16349;53.672;10.014;2023-08-24T04:54:27;3.80;;;3.60;;
29362;SDS011;16349;53.672;10.014;2023-08-24T04:56:54;6.67;;;3.00;;
29362;SDS011;16349;53.672;10.014;2023-08-24T04:59:21;4.23;;;3.80;;
29362;SDS011;16349;53.672;10.014;2023-08-24T05:01:48;4.23;;;3.10;;
29362;SDS011;16349;53.672;10.014;2023-08-24T05:04:14;3.53;;;3.10;;
29362;SDS011;16349;53.672;10.014;2023-08-24T05:06:41;3.07;;;2.83;;
29362;SDS011;16349;53.672;10.014;2023-08-24T05:09:09;4.23;;;3.13;;
29362;SDS011;16349;53.672;10.014;2023-08-24T05:11:36;4.77;;;3.50;;
29362;SDS011;16349;53.672;10.014;2023-08-24T05:14:03;5.20;;;4.70;;
29362;SDS011;16349;53.672;10.014;2023-08-24T05:16:30;5.50;;;3.80;;
29362;SDS011;16349;53.672;10.014;2023-08-24T05:18:57;4.03;;;3.47;;
29362;SDS011;16349;53.672;10.014;2023-08-24T05:21:24;4.83;;;3.27;;
29362;SDS011;16349;53.672;10.014;2023-08-24T05:23:51;5.20;;;3.07;;
29362;SDS011;16349;53.672;10.014;2023-08-24T05:26:19;7.27;;;3.93;;
29362;SDS011;16349;53.672;10.014;2023-08-24T05:28:49;5.13;;;3.83;;
29362;SDS011;16349;53.672;10.014;2023-08-24T05:31:16;4.97;;;3.43;;
29362;SDS011;16349;53.672;10.014;2023-08-24T05:33:43;4.17;;;3.77;;
29362;SDS011;16349;53.672;10.014;2023-08-24T05:36:10;7.13;;;4.20;;
29362;SDS011;16349;53.672;10.014;2023-08-24T05:38:37;6.40;;;4.40;;
29362;SDS011;16349;53.672;10.014;2023-08-24T05:41:03;6.50;;;5.33;;
29362;SDS011;16349;53.672;10.014;2023-08-24T05:43:31;5.10;;;4.53;;
29362;SDS011;16349;53.672;10.014;2023-08-24T05:45:58;4.67;;;3.93;;
29362;SDS011;16349;53.672;10.014;2023-08-24T05:48:25;5.80;;;4.63;;
29362;SDS011;16349;53.672;10.014;2023-08-24T05:50:52;10.03;;;5.77;;
29362;SDS011;16349;53.672;10.014;2023-08-24T05:53:19;6.57;;;5.97;;
29362;SDS011;16349;53.672;10.014;2023-08-24T05:55:46;6.40;;;4.67;;
29362;SDS011;16349;53.672;10.014;2023-08-24T05:58:12;7.60;;;5.00;;
29362;SDS011;16349;53.672;10.014;2023-08-24T06:00:41;5.17;;;4.73;;
29362;SDS011;16349;53.672;10.014;2023-08-24T06:03:07;7.67;;;5.43;;
29362;SDS011;16349;53.672;10.014;2023-08-24T06:05:34;7.83;;;5.20;;
29362;SDS011;16349;53.672;10.014;2023-08-24T06:08:01;5.43;;;4.73;;
29362;SDS011;16349;53.672;10.014;2023-08-24T06:10:28;4.73;;;3.87;;
29362;SDS011;16349;53.672;10.014;2023-08-24T06:12:56;7.43;;;4.10;;
29362;SDS011;16349;53.672;10.014;2023-08-24T06:15:22;4.97;;;4.10;;
29362;SDS011;16349;53.672;10.014;2023-08-24T06:17:54;4.93;;;4.27;;
29362;SDS011;16349;53.672;10.014;2023-08-24T06:20:21;5.17;;;3.67;;
29362;SDS011;16349;53.672;10.014;2023-08-24T06:22:47;4.70;;;3.90;;
29362;SDS011;16349;53.672;10.014;2023-08-24T06:25:15;4.60;;;2.60;;
29362;SDS011;16349;53.672;10.014;2023-08-24T06:27:42;2.00;;;1.90;;
29362;SDS011;16349;53.672;10.014;2023-08-24T06:30:09;4.20;;;2.90;;
29362;SDS011;16349;53.672;10.014;2023-08-24T06:32:36;5.17;;;3.40;;
29362;SDS011;16349;53.672;10.014;2023-08-24T06:35:05;5.10;;;2.50;;
29362;SDS011;16349;53.672;10.014;2023-08-24T06:37:32;2.13;;;1.93;;
29362;SDS011;16349;53.672;10.014;2023-08-24T06:39:59;4.87;;;2.70;;
29362;SDS011;16349;53.672;10.014;2023-08-24T06:42:25;3.53;;;2.00;;
29362;SDS011;16349;53.672;10.014;2023-08-24T06:44:52;4.07;;;2.10;;
29362;SDS011;16349;53.672;10.014;2023-08-24T06:47:19;6.77;;;3.57;;
29362;SDS011;16349;53.672;10.014;2023-08-24T06:49:46;6.97;;;2.53;;
29362;SDS011;16349;53.672;10.014;2023-08-24T06:52:14;3.17;;;2.00;;
29362;SDS011;16349;53.672;10.014;2023-08-24T06:54:41;4.60;;;2.40;;
29362;SDS011;16349;53.672;10.014;2023-08-24T06:57:08;5.47;;;2.90;;
29362;SDS011;16349;53.672;10.014;2023-08-24T06:59:35;2.60;;;1.70;;
29362;SDS011;16349;53.672;10.014;2023-08-24T07:02:01;1.97;;;1.70;;
29362;SDS011;16349;53.672;10.014;2023-08-24T07:04:29;7.30;;;3.33;;
29362;SDS011;16349;53.672;10.014;2023-08-24T07:06:56;2.13;;;2.00;;
29362;SDS011;16349;53.672;10.014;2023-08-24T07:09:24;4.30;;;2.00;;
29362;SDS011;16349;53.672;10.014;2023-08-24T07:11:52;4.13;;;1.50;;
29362;SDS011;16349;53.672;10.014;2023-08-24T07:14:19;2.57;;;1.63;;
29362;SDS011;16349;53.672;10.014;2023-08-24T07:16:46;4.67;;;1.60;;
29362;SDS011;16349;53.672;10.014;2023-08-24T07:19:13;1.47;;;1.10;;
29362;SDS011;16349;53.672;10.014;2023-08-24T07:21:40;2.27;;;1.10;;
29362;SDS011;16349;53.672;10.014;2023-08-24T07:24:07;3.40;;;1.27;;
29362;SDS011;16349;53.672;10.014;2023-08-24T07:26:35;1.60;;;1.03;;
29362;SDS011;16349;53.672;10.014;2023-08-24T07:29:02;2.07;;;1.27;;
29362;SDS011;16349;53.672;10.014;2023-08-24T07:31:29;1.70;;;1.30;;
29362;SDS011;16349;53.672;10.014;2023-08-24T07:33:55;2.20;;;1.13;;
29362;SDS011;16349;53.672;10.014;2023-08-24T07:36:23;2.23;;;1.20;;
29362;SDS011;16349;53.672;10.014;2023-08-24T07:38:50;3.53;;;0.90;;
29362;SDS011;16349;53.672;10.014;2023-08-24T07:41:17;4.57;;;1.10;;
29362;SDS011;16349;53.672;10.014;2023-08-24T07:43:45;1.07;;;0.90;;
29362;SDS011;16349;53.672;10.014;2023-08-24T07:46:12;1.80;;;0.80;;
29362;SDS011;16349;53.672;10.014;2023-08-24T07:48:39;1.23;;;0.97;;
29362;SDS011;16349;53.672;10.014;2023-08-24T07:51:06;4.57;;;0.80;;
29362;SDS011;16349;53.672;10.014;2023-08-24T07:53:33;2.50;;;1.07;;
29362;SDS011;16349;53.672;10.014;2023-08-24T07:56:00;1.77;;;0.87;;
29362;SDS011;16349;53.672;10.014;2023-08-24T07:58:28;2.23;;;1.03;;
29362;SDS011;16349;53.672;10.014;2023-08-24T08:00:57;1.13;;;1.03;;
29362;SDS011;16349;53.672;10.014;2023-08-24T08:03:25;2.60;;;0.93;;
29362;SDS011;16349;53.672;10.014;2023-08-24T08:05:52;3.40;;;0.97;;
29362;SDS011;16349;53.672;10.014;2023-08-24T08:08:19;0.70;;;0.43;;
29362;SDS011;16349;53.672;10.014;2023-08-24T08:10:46;1.47;;;0.80;;
29362;SDS011;16349;53.672;10.014;2023-08-24T08:13:13;4.00;;;0.80;;
29362;SDS011;16349;53.672;10.014;2023-08-24T08:15:40;1.93;;;0.80;;
29362;SDS011;16349;53.672;10.014;2023-08-24T08:18:08;1.90;;;0.90;;
29362;SDS011;16349;53.672;10.014;2023-08-24T08:20:35;2.10;;;0.70;;
29362;SDS011;16349;53.672;10.014;2023-08-24T08:23:02;1.13;;;0.57;;
29362;SDS011;16349;53.672;10.014;2023-08-24T08:25:29;2.30;;;1.00;;
29362;SDS011;16349;53.672;10.014;2023-08-24T08:27:56;1.33;;;0.73;;
29362;SDS011;16349;53.672;10.014;2023-08-24T08:30:23;3.60;;;0.90;;
29362;SDS011;16349;53.672;10.014;2023-08-24T08:32:49;4.17;;;1.07;;
29362;SDS011;16349;53.672;10.014;2023-08-24T08:35:18;1.03;;;0.70;;
29362;SDS011;16349;53.672;10.014;2023-08-24T08:37:45;2.73;;;0.70;;
29362;SDS011;16349;53.672;10.014;2023-08-24T08:40:14;2.10;;;0.77;;
29362;SDS011;16349;53.672;10.014;2023-08-24T08:42:42;2.17;;;0.57;;
29362;SDS011;16349;53.672;10.014;2023-08-24T08:45:10;1.80;;;0.80;;
29362;SDS011;16349;53.672;10.014;2023-08-24T08:47:37;2.40;;;1.17;;
29362;SDS011;16349;53.672;10.014;2023-08-24T08:50:06;3.63;;;0.73;;
29362;SDS011;16349;53.672;10.014;2023-08-24T08:52:36;2.90;;;1.00;;
29362;SDS011;16349;53.672;10.014;2023-08-24T08:55:03;1.37;;;0.73;;
29362;SDS011;16349;53.672;10.014;2023-08-24T08:57:32;1.30;;;0.90;;
29362;SDS011;16349;53.672;10.014;2023-08-24T08:59:59;0.93;;;0.93;;
29362;SDS011;16349;53.672;10.014;2023-08-24T09:02:26;1.17;;;0.70;;
29362;SDS011;16349;53.672;10.014;2023-08-24T09:04:57;2.33;;;0.93;;
29362;SDS011;16349;53.672;10.014;2023-08-24T09:07:23;1.40;;;1.00;;
29362;SDS011;16349;53.672;10.014;2023-08-24T09:09:52;3.67;;;1.27;;
29362;SDS011;16349;53.672;10.014;2023-08-24T09:12:19;1.53;;;0.90;;
29362;SDS011;16349;53.672;10.014;2023-08-24T09:14:46;1.90;;;0.70;;
29362;SDS011;16349;53.672;10.014;2023-08-24T09:17:19;2.93;;;0.60;;
29362;SDS011;16349;53.672;10.014;2023-08-24T09:19:47;1.13;;;0.90;;
29362;SDS011;16349;53.672;10.014;2023-08-24T09:22:16;2.38;;;1.10;;
29362;SDS011;16349;53.672;10.014;2023-08-24T09:24:43;1.42;;;1.05;;
29362;SDS011;16349;53.672;10.014;2023-08-24T09:27:15;2.65;;;1.15;;
29362;SDS011;16349;53.672;10.014;2023-08-24T09:29:46;3.72;;;1.38;;
29362;SDS011;16349;53.672;10.014;2023-08-24T09:32:14;1.25;;;1.15;;
29362;SDS011;16349;53.672;10.014;2023-08-24T09:34:41;3.78;;;1.10;;
29362;SDS011;16349;53.672;10.014;2023-08-24T09:37:12;4.72;;;2.10;;
29362;SDS011;16349;53.672;10.014;2023-08-24T09:39:40;4.47;;;1.60;;
29362;SDS011;16349;53.672;10.014;2023-08-24T09:42:07;3.10;;;1.63;;
29362;SDS011;16349;53.672;10.014;2023-08-24T09:44:35;3.28;;;1.90;;
29362;SDS011;16349;53.672;10.014;2023-08-24T09:47:07;2.35;;;1.63;;
29362;SDS011;16349;53.672;10.014;2023-08-24T09:49:36;4.50;;;2.22;;
29362;SDS011;16349;53.672;10.014;2023-08-24T09:52:03;4.50;;;2.38;;
29362;SDS011;16349;53.672;10.014;2023-08-24T09:54:36;2.88;;;2.30;;
29362;SDS011;16349;53.672;10.014;2023-08-24T09:57:04;5.75;;;2.30;;
29362;SDS011;16349;53.672;10.014;2023-08-24T09:59:34;3.63;;;2.15;;
29362;SDS011;16349;53.672;10.014;2023-08-24T10:02:03;5.72;;;2.50;;
29362;SDS011;16349;53.672;10.014;2023-08-24T10:04:40;4.85;;;2.70;;
29362;SDS011;16349;53.672;10.014;2023-08-24T10:07:09;3.88;;;2.35;;
29362;SDS011;16349;53.672;10.014;2023-08-24T10:09:44;3.85;;;2.70;;
29362;SDS011;16349;53.672;10.014;2023-08-24T10:12:14;5.55;;;3.80;;
29362;SDS011;16349;53.672;10.014;2023-08-24T10:14:47;5.90;;;2.78;;
29362;SDS011;16349;53.672;10.014;2023-08-24T10:17:21;4.05;;;3.05;;
29362;SDS011;16349;53.672;10.014;2023-08-24T10:19:49;4.93;;;2.85;;
29362;SDS011;16349;53.672;10.014;2023-08-24T10:22:18;3.47;;;3.08;;
29362;SDS011;16349;53.672;10.014;2023-08-24T10:24:47;5.18;;;4.25;;
29362;SDS011;16349;53.672;10.014;2023-08-24T10:27:14;11.88;;;3.78;;
29362;SDS011;16349;53.672;10.014;2023-08-24T10:29:42;4.65;;;2.70;;
29362;SDS011;16349;53.672;10.014;2023-08-24T10:32:10;3.60;;;2.80;;
29362;SDS011;16349;53.672;10.014;2023-08-24T10:34:39;4.43;;;2.85;;
29362;SDS011;16349;53.672;10.014;2023-08-24T10:37:07;6.03;;;2.85;;
29362;SDS011;16349;53.672;10.014;2023-08-24T10:39:35;3.13;;;2.40;;
29362;SDS011;16349;53.672;10.014;2023-08-24T10:42:03;5.35;;;2.58;;
29362;SDS011;16349;53.672;10.014;2023-08-24T10:44:34;8.00;;;2.88;;
29362;SDS011;16349;53.672;10.014;2023-08-24T10:47:06;4.60;;;2.70;;
29362;SDS011;16349;53.672;10.014;2023-08-24T10:49:35;4.70;;;2.15;;
29362;SDS011;16349;53.672;10.014;2023-08-24T10:52:16;3.90;;;3.03;;
29362;SDS011;16349;53.672;10.014;2023-08-24T10:54:44;7.10;;;2.80;;
29362;SDS011;16349;53.672;10.014;2023-08-24T10:57:20;4.20;;;2.30;;
29362;SDS011;16349;53.672;10.014;2023-08-24T11:00:03;4.90;;;3.78;;
29362;SDS011;16349;53.672;10.014;2023-08-24T11:02:40;6.13;;;2.70;;
29362;SDS011;16349;53.672;10.014;2023-08-24T11:05:17;4.28;;;2.70;;
29362;SDS011;16349;53.672;10.014;2023-08-24T11:07:55;3.55;;;2.75;;
29362;SDS011;16349;53.672;10.014;2023-08-24T11:10:23;3.47;;;2.53;;
29362;SDS011;16349;53.672;10.014;2023-08-24T11:13:04;5.45;;;3.13;;
29362;SDS011;16349;53.672;10.014;2023-08-24T11:15:41;2.75;;;2.15;;
29362;SDS011;16349;53.672;10.014;2023-08-24T11:18:12;6.93;;;2.40;;
29362;SDS011;16349;53.672;10.014;2023-08-24T11:20:43;5.72;;;2.65;;
29362;SDS011;16349;53.672;10.014;2023-08-24T11:23:10;5.30;;;2.35;;
29362;SDS011;16349;53.672;10.014;2023-08-24T11:25:38;3.28;;;2.22;;
29362;SDS011;16349;53.672;10.014;2023-08-24T11:28:05;2.90;;;2.28;;
29362;SDS011;16349;53.672;10.014;2023-08-24T11:30:33;3.17;;;2.40;;
29362;SDS011;16349;53.672;10.014;2023-08-24T11:33:00;4.80;;;1.88;;
29362;SDS011;16349;53.672;10.014;2023-08-24T11:35:28;4.75;;;2.10;;
29362;SDS011;16349;53.672;10.014;2023-08-24T11:37:56;2.42;;;1.85;;
29362;SDS011;16349;53.672;10.014;2023-08-24T11:40:23;5.45;;;2.20;;
29362;SDS011;16349;53.672;10.014;2023-08-24T11:42:53;8.13;;;2.08;;
29362;SDS011;16349;53.672;10.014;2023-08-24T11:45:20;4.97;;;1.85;;
29362;SDS011;16349;53.672;10.014;2023-08-24T11:47:48;3.58;;;1.95;;
29362;SDS011;16349;53.672;10.014;2023-08-24T11:50:16;4.93;;;2.20;;
29362;SDS011;16349;53.672;10.014;2023-08-24T11:52:43;2.05;;;1.80;;
29362;SDS011;16349;53.672;10.014;2023-08-24T11:55:12;3.28;;;2.28;;
29362;SDS011;16349;53.672;10.014;2023-08-24T11:57:41;3.53;;;1.88;;
29362;SDS011;16349;53.672;10.014;2023-08-24T12:00:08;2.88;;;1.95;;
29362;SDS011;16349;53.672;10.014;2023-08-24T12:02:39;3.97;;;2.17;;
29362;SDS011;16349;53.672;10.014;2023-08-24T12:05:07;2.83;;;2.05;;
29362;SDS011;16349;53.672;10.014;2023-08-24T12:07:34;4.63;;;1.98;;
29362;SDS011;16349;53.672;10.014;2023-08-24T12:10:00;2.30;;;2.10;;
29362;SDS011;16349;53.672;10.014;2023-08-24T12:12:29;2.47;;;1.95;;
29362;SDS011;16349;53.672;10.014;2023-08-24T12:14:56;3.17;;;2.13;;
29362;SDS011;16349;53.672;10.014;2023-08-24T12:17:23;4.45;;;1.95;;
29362;SDS011;16349;53.672;10.014;2023-08-24T12:19:58;4.15;;;1.95;;
29362;SDS011;16349;53.672;10.014;2023-08-24T12:22:26;7.55;;;2.72;;
29362;SDS011;16349;53.672;10.014;2023-08-24T12:24:53;3.25;;;2.25;;
29362;SDS011;16349;53.672;10.014;2023-08-24T12:27:20;3.85;;;2.22;;
29362;SDS011;16349;53.672;10.014;2023-08-24T12:29:49;3.53;;;2.20;;
29362;SDS011;16349;53.672;10.014;2023-08-24T12:32:16;2.05;;;1.85;;
29362;SDS011;16349;53.672;10.014;2023-08-24T12:34:45;2.95;;;1.83;;
29362;SDS011;16349;53.672;10.014;2023-08-24T12:37:12;4.45;;;1.80;;
29362;SDS011;16349;53.672;10.014;2023-08-24T12:39:39;2.80;;;1.85;;
29362;SDS011;16349;53.672;10.014;2023-08-24T12:42:06;2.17;;;2.08;;
29362;SDS011;16349;53.672;10.014;2023-08-24T12:44:33;4.82;;;2.05;;
29362;SDS011;16349;53.672;10.014;2023-08-24T12:47:02;3.13;;;1.95;;
29362;SDS011;16349;53.672;10.014;2023-08-24T12:49:30;4.38;;;2.20;;
29362;SDS011;16349;53.672;10.014;2023-08-24T12:51:57;2.20;;;2.00;;
29362;SDS011;16349;53.672;10.014;2023-08-24T12:54:24;2.60;;;1.70;;
29362;SDS011;16349;53.672;10.014;2023-08-24T12:56:50;2.45;;;1.92;;
29362;SDS011;16349;53.672;10.014;2023-08-24T12:59:18;2.47;;;2.28;;
29362;SDS011;16349;53.672;10.014;2023-08-24T13:01:45;3.45;;;2.40;;
29362;SDS011;16349;53.672;10.014;2023-08-24T13:04:14;2.50;;;2.10;;
29362;SDS011;16349;53.672;10.014;2023-08-24T13:06:40;2.67;;;2.20;;
29362;SDS011;16349;53.672;10.014;2023-08-24T13:09:07;5.88;;;1.88;;
29362;SDS011;16349;53.672;10.014;2023-08-24T13:11:37;2.13;;;1.70;;
29362;SDS011;16349;53.672;10.014;2023-08-24T13:14:04;3.65;;;1.90;;
29362;SDS011;16349;53.672;10.014;2023-08-24T13:16:31;4.90;;;2.63;;
29362;SDS011;16349;53.672;10.014;2023-08-24T13:18:57;1.70;;;1.60;;
29362;SDS011;16349;53.672;10.014;2023-08-24T13:21:26;3.80;;;2.35;;
29362;SDS011;16349;53.672;10.014;2023-08-24T13:23:53;3.20;;;1.85;;
29362;SDS011;16349;53.672;10.014;2023-08-24T13:26:20;5.35;;;2.08;;
29362;SDS011;16349;53.672;10.014;2023-08-24T13:28:48;4.53;;;2.22;;
29362;SDS011;16349;53.672;10.014;2023-08-24T13:31:15;2.88;;;1.95;;
29362;SDS011;16349;53.672;10.014;2023-08-24T13:33:43;2.08;;;1.70;;
29362;SDS011;16349;53.672;10.014;2023-08-24T13:36:10;2.80;;;2.10;;
29362;SDS011;16349;53.672;10.014;2023-08-24T13:38:38;1.88;;;1.63;;
29362;SDS011;16349;53.672;10.014;2023-08-24T13:41:05;3.13;;;1.98;;
29362;SDS011;16349;53.672;10.014;2023-08-24T13:43:32;2.03;;;1.88;;
29362;SDS011;16349;53.672;10.014;2023-08-24T13:45:59;4.32;;;2.00;;
29362;SDS011;16349;53.672;10.014;2023-08-24T13:48:26;3.70;;;1.88;;
29362;SDS011;16349;53.672;10.014;2023-08-24T13:50:54;4.85;;;2.20;;
29362;SDS011;16349;53.672;10.014;2023-08-24T13:53:21;2.55;;;1.98;;
29362;SDS011;16349;53.672;10.014;2023-08-24T13:55:50;3.45;;;1.90;;
29362;SDS011;16349;53.672;10.014;2023-08-24T13:58:16;3.58;;;1.77;;
29362;SDS011;16349;53.672;10.014;2023-08-24T14:00:43;3.78;;;2.03;;
29362;SDS011;16349;53.672;10.014;2023-08-24T14:03:10;4.75;;;2.30;;
29362;SDS011;16349;53.672;10.014;2023-08-24T14:05:38;2.42;;;1.98;;
29362;SDS011;16349;53.672;10.014;2023-08-24T14:08:05;3.13;;;2.03;;
29362;SDS011;16349;53.672;10.014;2023-08-24T14:10:33;2.22;;;1.80;;
29362;SDS011;16349;53.672;10.014;2023-08-24T14:13:01;1.83;;;1.73;;
29362;SDS011;16349;53.672;10.014;2023-08-24T14:15:28;4.63;;;1.90;;
29362;SDS011;16349;53.672;10.014;2023-08-24T14:17:55;8.52;;;2.20;;
29362;SDS011;16349;53.672;10.014;2023-08-24T14:20:22;2.22;;;1.73;;
29362;SDS011;16349;53.672;10.014;2023-08-24T14:22:49;3.40;;;1.80;;
29362;SDS011;16349;53.672;10.014;2023-08-24T14:25:16;2.17;;;1.83;;
29362;SDS011;16349;53.672;10.014;2023-08-24T14:27:43;4.00;;;1.95;;
29362;SDS011;16349;53.672;10.014;2023-08-24T14:30:11;2.45;;;1.92;;
29362;SDS011;16349;53.672;10.014;2023-08-24T14:32:39;2.85;;;1.67;;
29362;SDS011;16349;53.672;10.014;2023-08-24T14:35:06;3.42;;;1.70;;
29362;SDS011;16349;53.672;10.014;2023-08-24T14:37:34;2.67;;;1.52;;